Time;durP1;ratioP1;P1;durP2;ratioP2;P2;SDS_P1;SDS_P2;PMS_P1;PMS_P2;Temp;Humidity;BMP_temperature;BMP_pressure;BME280_temperature;BME280_humidity;BME280_pressure;Samples;Min_cycle;Max_cycle;Signal;HPM_P1;HPM_P2
2022/10/30 00:00:11;;;;;;;;;;;;;;;15.40;100.00;98504.66;5048762;28;19957;-66
2022/10/30 00:02:37;;;;;;;;;;;;;;;15.44;100.00;98497.63;5035134;28;20000;-65
2022/10/30 00:05:03;;;;;;;;;;;;;;;15.43;100.00;98500.59;5045368;28;19959;-65
2022/10/30 00:07:30;;;;;;;;;;;;;;;15.41;100.00;98497.41;5044758;28;19965;-64
2022/10/30 00:09:56;;;;;;;;;;;;;;;15.48;100.00;98489.81;5044797;28;19925;-65
2022/10/30 00:12:24;;;;;;;;;;;;;;;15.52;100.00;98488.19;5046448;28;20508;-65
2022/10/30 00:14:50;;;;;;;;;;;;;;;15.53;100.00;98490.59;5043850;28;19953;-65
2022/10/30 00:17:16;;;;;;;;;;;;;;;15.57;100.00;98488.13;5042455;28;19925;-65
2022/10/30 00:19:43;;;;;;;;;;;;;;;15.56;100.00;98489.25;5041423;28;19926;-64
2022/10/30 00:22:09;;;;;;;;;;;;;;;15.52;100.00;98488.19;5040305;28;19981;-65
2022/10/30 00:24:35;;;;;;;;;;;;;;;15.54;100.00;98496.78;5044454;28;19997;-66
2022/10/30 00:27:02;;;;;;;;;;;;;;;15.53;100.00;98495.19;5039756;28;19932;-64
2022/10/30 00:29:29;;;;;;;;;;;;;;;15.50;100.00;98496.56;5039609;28;20428;-66
2022/10/30 00:31:56;;;;;;;;;;;;;;;15.50;100.00;98495.75;5035007;28;19984;-65
2022/10/30 00:34:22;;;;;;;;;;;;;;;15.48;100.00;98484.44;5044944;28;19948;-64
2022/10/30 00:36:48;;;;;;;;;;;;;;;15.44;100.00;98499.53;5038436;28;19921;-65
2022/10/30 00:39:15;;;;;;;;;;;;;;;15.43;100.00;98493.34;5036714;28;19933;-65
2022/10/30 00:41:41;;;;;;;;;;;;;;;15.42;100.00;98482.84;5039445;28;19992;-64
2022/10/30 00:44:22;;;;;;;;;;;;;;;15.47;100.00;98485.50;5042654;28;19925;-66
2022/10/30 00:46:50;;;;;;;;;;;;;;;15.47;100.00;98485.50;5036779;28;20024;-64
2022/10/30 00:49:17;;;;;;;;;;;;;;;15.47;100.00;98480.94;5048575;28;19996;-65
2022/10/30 00:51:45;;;;;;;;;;;;;;;15.50;100.00;98476.91;5043333;28;19932;-65
2022/10/30 00:54:14;;;;;;;;;;;;;;;15.49;100.00;98478.78;5047318;28;19929;-64
2022/10/30 00:56:41;;;;;;;;;;;;;;;15.45;100.00;98479.59;5046366;28;19997;-65
2022/10/30 00:59:10;;;;;;;;;;;;;;;15.44;100.00;98486.06;5044964;28;19996;-63
2022/10/30 01:01:37;;;;;;;;;;;;;;;15.44;100.00;98480.69;5048481;28;19988;-65
2022/10/30 01:04:06;;;;;;;;;;;;;;;15.42;100.00;98480.13;5042117;28;20024;-65
2022/10/30 01:06:33;;;;;;;;;;;;;;;15.36;100.00;98481.25;5055748;28;19946;-64
2022/10/30 01:09:00;;;;;;;;;;;;;;;15.20;100.00;98467.09;5062181;28;19988;-65
2022/10/30 01:11:26;;;;;;;;;;;;;;;15.20;100.00;98468.97;5060458;28;19924;-64
2022/10/30 01:13:53;;;;;;;;;;;;;;;14.93;100.00;98464.84;5058680;28;19925;-65
2022/10/30 01:16:31;;;;;;;;;;;;;;;14.79;100.00;98471.91;5058678;28;19960;-65
2022/10/30 01:19:03;;;;;;;;;;;;;;;14.78;100.00;98472.19;5062003;28;19925;-65
2022/10/30 01:21:49;;;;;;;;;;;;;;;14.87;100.00;98467.84;5059669;28;19924;-65
2022/10/30 01:24:26;;;;;;;;;;;;;;;14.98;100.00;98458.63;5056192;28;19984;-64
2022/10/30 01:26:57;;;;;;;;;;;;;;;15.03;100.00;98464.81;5058224;28;19925;-65
2022/10/30 01:29:28;;;;;;;;;;;;;;;14.96;100.00;98450.84;5059177;28;19944;-64
2022/10/30 01:32:04;;;;;;;;;;;;;;;15.04;100.00;98455.63;5061569;28;19992;-64
2022/10/30 01:34:33;;;;;;;;;;;;;;;14.99;100.00;98449.47;5059053;28;20375;-64
2022/10/30 01:37:03;;;;;;;;;;;;;;;15.05;100.00;98446.50;5058004;28;19925;-64
2022/10/30 01:39:32;;;;;;;;;;;;;;;14.99;100.00;98450.28;5060047;28;19925;-65
2022/10/30 01:41:59;;;;;;;;;;;;;;;15.04;100.00;98455.63;5061467;28;19980;-66
2022/10/30 01:44:27;;;;;;;;;;;;;;;14.90;100.00;98448.47;5059725;28;19933;-65
2022/10/30 01:47:11;;;;;;;;;;;;;;;14.83;100.00;98445.25;5057791;28;20020;-65
2022/10/30 01:49:47;;;;;;;;;;;;;;;14.87;100.00;98444.44;5060598;28;19935;-64
2022/10/30 01:52:18;;;;;;;;;;;;;;;14.89;100.00;98442.28;5057887;28;20008;-65
2022/10/30 01:54:46;;;;;;;;;;;;;;;15.02;100.00;98443.53;5050487;28;19928;-64
2022/10/30 01:57:17;;;;;;;;;;;;;;;15.02;100.00;98440.84;5057664;28;19936;-65
2022/10/30 01:59:46;;;;;;;;;;;;;;;15.00;100.00;98446.53;5050126;28;19931;-65
2022/10/30 02:02:13;;;;;;;;;;;;;;;15.00;100.00;98443.03;5057598;28;19997;-65
2022/10/30 02:04:39;;;;;;;;;;;;;;;15.02;100.00;98438.16;5060277;28;19932;-65
2022/10/30 02:07:06;;;;;;;;;;;;;;;15.00;100.00;98446.53;5060928;28;19928;-65
2022/10/30 02:09:34;;;;;;;;;;;;;;;14.94;100.00;98444.94;5058507;28;19925;-65
2022/10/30 02:12:00;;;;;;;;;;;;;;;14.91;100.00;98450.88;5057721;28;19964;-64
2022/10/30 02:14:28;;;;;;;;;;;;;;;14.91;100.00;98450.88;5059189;28;19931;-64
2022/10/30 02:16:56;;;;;;;;;;;;;;;14.96;100.00;98442.78;5061035;28;19921;-64
2022/10/30 02:19:23;;;;;;;;;;;;;;;14.95;100.00;98434.97;5059704;28;19921;-64
2022/10/30 02:21:50;;;;;;;;;;;;;;;14.79;100.00;98434.25;5057564;28;19993;-64
2022/10/30 02:24:17;;;;;;;;;;;;;;;14.77;100.00;98444.50;5055414;28;20081;-64
2022/10/30 02:26:43;;;;;;;;;;;;;;;14.83;100.00;98437.19;5057471;28;19921;-64
2022/10/30 02:29:09;;;;;;;;;;;;;;;14.86;100.00;98433.94;5057338;28;19926;-65
2022/10/30 02:31:36;;;;;;;;;;;;;;;14.92;100.00;98435.53;5060246;28;19952;-65
2022/10/30 02:34:03;;;;;;;;;;;;;;;14.93;100.00;98437.16;5060861;28;20015;-66
2022/10/30 02:36:29;;;;;;;;;;;;;;;14.93;100.00;98435.25;5058682;28;19929;-64
2022/10/30 02:38:57;;;;;;;;;;;;;;;14.91;100.00;98440.13;5057257;28;19929;-65
2022/10/30 02:41:23;;;;;;;;;;;;;;;14.89;100.00;98430.72;5058296;28;19925;-65
2022/10/30 02:43:50;;;;;;;;;;;;;;;14.94;100.00;98431.50;5060393;28;20543;-65
2022/10/30 02:46:16;;;;;;;;;;;;;;;14.98;100.00;98429.84;5059926;28;19988;-65
2022/10/30 02:48:43;;;;;;;;;;;;;;;14.98;100.00;98429.84;5056946;28;19928;-64
2022/10/30 02:51:09;;;;;;;;;;;;;;;14.99;100.00;98436.84;5056924;28;19993;-64
2022/10/30 02:53:35;;;;;;;;;;;;;;;14.97;100.00;98433.63;5056314;28;19992;-65
2022/10/30 02:56:07;;;;;;;;;;;;;;;14.98;100.00;98435.22;5060427;28;19960;-65
2022/10/30 02:58:33;;;;;;;;;;;;;;;14.95;100.00;98441.16;5057507;28;19988;-65
2022/10/30 03:01:04;;;;;;;;;;;;;;;14.96;100.00;98440.09;5056821;28;20000;-65
2022/10/30 03:03:31;;;;;;;;;;;;;;;14.93;100.00;98431.75;5059214;28;19964;-65
2022/10/30 03:05:59;;;;;;;;;;;;;;;14.95;100.00;98432.28;5060243;28;20005;-65
2022/10/30 03:08:26;;;;;;;;;;;;;;;15.02;100.00;98428.22;5058605;28;19984;-64
2022/10/30 03:10:52;;;;;;;;;;;;;;;14.94;100.00;98434.19;5056700;28;20005;-65
2022/10/30 03:13:20;;;;;;;;;;;;;;;15.03;100.00;98431.72;5056940;28;19947;-64
2022/10/30 03:15:46;;;;;;;;;;;;;;;14.96;100.00;98431.22;5057726;28;19932;-64
2022/10/30 03:18:12;;;;;;;;;;;;;;;14.77;100.00;98435.63;5058907;28;20641;-65
2022/10/30 03:20:39;;;;;;;;;;;;;;;14.70;100.00;98443.19;5056636;28;19984;-65
2022/10/30 03:23:05;;;;;;;;;;;;;;;14.73;100.00;98432.69;5061550;28;20341;-64
2022/10/30 03:25:31;;;;;;;;;;;;;;;14.68;100.00;98435.41;5057501;28;19928;-64
2022/10/30 03:27:58;;;;;;;;;;;;;;;14.72;100.00;98443.72;5056927;28;19985;-64
2022/10/30 03:30:25;;;;;;;;;;;;;;;14.73;100.00;98442.66;5058539;28;19921;-64
2022/10/30 03:32:52;;;;;;;;;;;;;;;14.80;100.00;98435.88;5061717;28;19992;-64
2022/10/30 03:35:18;;;;;;;;;;;;;;;14.73;100.00;98435.38;5060471;28;20369;-65
2022/10/30 03:37:44;;;;;;;;;;;;;;;14.55;100.00;98433.31;5057223;28;20012;-64
2022/10/30 03:40:11;;;;;;;;;;;;;;;14.37;100.00;98429.34;5056426;28;19932;-64
2022/10/30 03:42:39;;;;;;;;;;;;;;;14.22;100.00;98431.25;5059223;28;19980;-64
2022/10/30 03:45:06;;;;;;;;;;;;;;;14.14;100.00;98429.94;5059510;28;19929;-64
2022/10/30 03:47:34;;;;;;;;;;;;;;;14.17;100.00;98433.97;5057136;28;20095;-64
2022/10/30 03:50:00;;;;;;;;;;;;;;;14.28;100.00;98435.53;5056942;28;19925;-65
2022/10/30 03:52:27;;;;;;;;;;;;;;;14.31;100.00;98440.34;5054147;28;19925;-65
2022/10/30 03:54:53;;;;;;;;;;;;;;;14.41;100.00;98430.41;5056234;28;19925;-64
2022/10/30 03:57:19;;;;;;;;;;;;;;;14.43;100.00;98436.31;5056492;28;19980;-64
2022/10/30 03:59:46;;;;;;;;;;;;;;;14.52;100.00;98441.91;5059530;28;19964;-64
2022/10/30 04:02:12;;;;;;;;;;;;;;;14.52;100.00;98420.41;5059100;28;19985;-64
2022/10/30 04:04:40;;;;;;;;;;;;;;;14.48;100.00;98435.50;5056110;28;19988;-64
2022/10/30 04:07:06;;;;;;;;;;;;;;;14.50;100.00;98427.97;5055892;28;19929;-64
2022/10/30 04:09:32;;;;;;;;;;;;;;;14.53;100.00;98428.22;5058372;28;19992;-64
2022/10/30 04:11:58;;;;;;;;;;;;;;;14.58;100.00;98424.69;5059312;28;19931;-64
2022/10/30 04:14:25;;;;;;;;;;;;;;;14.57;100.00;98423.91;5057718;28;19921;-65
2022/10/30 04:16:51;;;;;;;;;;;;;;;14.53;100.00;98422.03;5055870;28;19925;-65
2022/10/30 04:19:17;;;;;;;;;;;;;;;14.58;100.00;98435.44;5056053;28;19999;-64
2022/10/30 04:21:46;;;;;;;;;;;;;;;14.58;100.00;98422.81;5059282;28;19925;-65
2022/10/30 04:24:15;;;;;;;;;;;;;;;14.59;100.00;98432.50;5057960;28;19949;-64
2022/10/30 04:26:41;;;;;;;;;;;;;;;14.63;100.00;98437.31;5047491;28;20040;-64
2022/10/30 04:29:07;;;;;;;;;;;;;;;14.60;100.00;98425.25;5056034;28;19989;-64
2022/10/30 04:31:33;;;;;;;;;;;;;;;14.59;100.00;98424.44;5058339;28;19925;-65
2022/10/30 04:34:00;;;;;;;;;;;;;;;14.60;100.00;98419.84;5059038;28;19988;-64
2022/10/30 04:36:29;;;;;;;;;;;;;;;14.61;100.00;98424.13;5057654;28;19929;-65
2022/10/30 04:38:57;;;;;;;;;;;;;;;14.52;100.00;98415.84;5055744;28;19937;-65
2022/10/30 04:41:23;;;;;;;;;;;;;;;14.56;100.00;98419.59;5056715;28;19931;-65
2022/10/30 04:43:49;;;;;;;;;;;;;;;14.55;100.00;98411.81;5059113;28;19952;-65
2022/10/30 04:46:16;;;;;;;;;;;;;;;14.58;100.00;98416.63;5058928;28;19992;-64
2022/10/30 04:48:42;;;;;;;;;;;;;;;14.56;100.00;98411.53;5055652;28;19925;-64
2022/10/30 04:51:10;;;;;;;;;;;;;;;14.46;100.00;98414.25;5055615;28;19976;-64
2022/10/30 04:53:36;;;;;;;;;;;;;;;14.54;100.00;98412.91;5054698;28;19939;-64
2022/10/30 04:56:05;;;;;;;;;;;;;;;14.45;100.00;98409.97;5058977;28;19921;-65
2022/10/30 04:58:31;;;;;;;;;;;;;;;14.49;100.00;98407.53;5056468;28;19925;-65
2022/10/30 05:01:00;;;;;;;;;;;;;;;14.46;100.00;98406.19;5055319;28;20007;-64
2022/10/30 05:03:26;;;;;;;;;;;;;;;14.42;100.00;98410.50;5056706;28;19956;-65
2022/10/30 05:05:57;;;;;;;;;;;;;;;14.49;100.00;98405.66;5058941;28;19988;-64
2022/10/30 05:08:23;;;;;;;;;;;;;;;14.45;100.00;98401.91;5057214;28;20015;-65
2022/10/30 05:10:49;;;;;;;;;;;;;;;14.41;100.00;98398.16;5055207;28;19925;-65
2022/10/30 05:13:17;;;;;;;;;;;;;;;14.38;100.00;98387.97;5054804;28;19980;-64
2022/10/30 05:15:43;;;;;;;;;;;;;;;14.36;100.00;98394.72;5058481;28;20019;-63
2022/10/30 05:18:09;;;;;;;;;;;;;;;14.35;100.00;98393.91;5058449;28;19988;-65
2022/10/30 05:20:36;;;;;;;;;;;;;;;14.27;100.00;98393.63;5055561;28;19961;-64
2022/10/30 05:23:02;;;;;;;;;;;;;;;14.31;100.00;98400.06;5059545;28;19925;-64
2022/10/30 05:25:29;;;;;;;;;;;;;;;14.36;100.00;98402.78;5056517;28;20541;-64
2022/10/30 05:27:58;;;;;;;;;;;;;;;14.36;100.00;98397.41;5055099;28;19931;-65
2022/10/30 05:30:26;;;;;;;;;;;;;;;14.36;100.00;98405.47;5056213;28;19925;-65
2022/10/30 05:32:57;;;;;;;;;;;;;;;14.34;100.00;98402.22;5058335;28;19925;-64
2022/10/30 05:35:23;;;;;;;;;;;;;;;14.40;100.00;98398.44;5056983;28;19929;-64
2022/10/30 05:37:49;;;;;;;;;;;;;;;14.42;100.00;98398.97;5055104;28;19968;-64
2022/10/30 05:40:16;;;;;;;;;;;;;;;14.40;100.00;98404.63;5057551;28;19993;-65
2022/10/30 05:42:44;;;;;;;;;;;;;;;14.39;100.00;98394.94;5061685;28;19993;-65
2022/10/30 05:45:11;;;;;;;;;;;;;;;14.39;100.00;98405.69;5061702;28;19992;-64
2022/10/30 05:47:38;;;;;;;;;;;;;;;14.43;100.00;98405.94;5058586;28;19929;-64
2022/10/30 05:50:05;;;;;;;;;;;;;;;14.46;100.00;98394.66;5058163;28;19925;-64
2022/10/30 05:52:31;;;;;;;;;;;;;;;14.39;100.00;98404.91;5056331;28;20020;-65
2022/10/30 05:54:58;;;;;;;;;;;;;;;14.40;100.00;98401.94;5058155;28;19956;-65
2022/10/30 05:57:24;;;;;;;;;;;;;;;14.29;100.00;98402.22;5059297;28;19929;-64
2022/10/30 05:59:50;;;;;;;;;;;;;;;14.32;100.00;98407.03;5061454;28;20099;-64
2022/10/30 06:02:17;;;;;;;;;;;;;;;14.41;100.00;98400.06;5061122;28;19988;-65
2022/10/30 06:04:44;;;;;;;;;;;;;;;14.44;100.00;98410.25;5057765;28;19937;-65
2022/10/30 06:07:11;;;;;;;;;;;;;;;14.36;100.00;98410.84;5057730;28;19985;-64
2022/10/30 06:09:37;;;;;;;;;;;;;;;14.30;100.00;98409.19;5060920;28;20027;-65
2022/10/30 06:12:03;;;;;;;;;;;;;;;14.33;100.00;98411.34;5061274;28;19988;-65
2022/10/30 06:14:30;;;;;;;;;;;;;;;14.33;100.00;98414.84;5059167;28;19976;-64
2022/10/30 06:16:56;;;;;;;;;;;;;;;14.40;100.00;98422.63;5058010;28;19936;-64
2022/10/30 06:19:22;;;;;;;;;;;;;;;14.43;100.00;98416.69;5058480;28;19964;-65
2022/10/30 06:21:50;;;;;;;;;;;;;;;14.41;100.00;98424.25;5061249;28;19988;-64
2022/10/30 06:24:16;;;;;;;;;;;;;;;14.41;100.00;98419.66;5059012;28;19956;-65
2022/10/30 06:26:43;;;;;;;;;;;;;;;14.30;100.00;98418.06;5061132;28;19931;-65
2022/10/30 06:29:09;;;;;;;;;;;;;;;14.20;100.00;98409.25;5060932;28;19933;-65
2022/10/30 06:31:35;;;;;;;;;;;;;;;14.07;100.00;98416.81;5058180;28;19929;-65
2022/10/30 06:34:02;;;;;;;;;;;;;;;13.98;100.00;98420.31;5057495;28;19949;-65
2022/10/30 06:36:28;;;;;;;;;;;;;;;13.99;100.00;98411.16;5059040;28;19925;-65
2022/10/30 06:38:56;;;;;;;;;;;;;;;13.96;100.00;98423.25;5060745;28;19925;-64
2022/10/30 06:41:22;;;;;;;;;;;;;;;13.97;100.00;98418.69;5059721;28;19989;-64
2022/10/30 06:43:48;;;;;;;;;;;;;;;13.97;100.00;98432.94;5057287;28;19932;-65
2022/10/30 06:46:15;;;;;;;;;;;;;;;13.97;100.00;98432.94;5057124;28;19925;-64
2022/10/30 06:48:41;;;;;;;;;;;;;;;13.84;100.00;98435.38;5048973;28;19929;-64
2022/10/30 06:51:07;;;;;;;;;;;;;;;13.84;100.00;98433.50;5056900;28;19936;-66
2022/10/30 06:53:33;;;;;;;;;;;;;;;13.94;100.00;98436.16;5055815;28;19971;-63
2022/10/30 06:56:02;;;;;;;;;;;;;;;14.04;100.00;98436.16;5060633;28;19949;-64
2022/10/30 06:58:29;;;;;;;;;;;;;;;14.14;100.00;98439.88;5058558;28;19988;-65
2022/10/30 07:00:56;;;;;;;;;;;;;;;14.16;100.00;98443.09;5057216;28;19936;-65
2022/10/30 07:03:22;;;;;;;;;;;;;;;14.13;100.00;98427.53;5058619;28;19922;-65
2022/10/30 07:05:48;;;;;;;;;;;;;;;14.23;100.00;98430.19;5060423;28;19925;-64
2022/10/30 07:08:14;;;;;;;;;;;;;;;14.15;100.00;98430.72;5060381;28;19977;-65
2022/10/30 07:10:41;;;;;;;;;;;;;;;14.05;100.00;98437.75;5048583;28;19992;-65
2022/10/30 07:13:09;;;;;;;;;;;;;;;13.98;100.00;98437.25;5056753;28;19996;-64
2022/10/30 07:15:35;;;;;;;;;;;;;;;13.94;100.00;98433.47;5059404;28;19967;-64
2022/10/30 07:18:03;;;;;;;;;;;;;;;13.92;100.00;98438.31;5060170;28;19925;-65
2022/10/30 07:20:30;;;;;;;;;;;;;;;13.82;100.00;98438.34;5058063;28;19974;-66
2022/10/30 07:22:56;;;;;;;;;;;;;;;13.74;100.00;98441.53;5052952;28;20022;-65
2022/10/30 07:25:23;;;;;;;;;;;;;;;13.70;100.00;98445.88;5057527;28;19925;-65
2022/10/30 07:27:50;;;;;;;;;;;;;;;13.65;100.00;98443.16;5060112;28;20480;-65
2022/10/30 07:30:18;;;;;;;;;;;;;;;13.61;100.00;98436.75;5060007;28;19924;-65
2022/10/30 07:32:45;;;;;;;;;;;;;;;13.66;100.00;98441.28;5056627;28;19929;-65
2022/10/30 07:35:12;;;;;;;;;;;;;;;13.60;100.00;98440.50;5056345;28;19926;-65
2022/10/30 07:37:39;;;;;;;;;;;;;;;13.63;100.00;98447.19;5059622;28;19925;-64
2022/10/30 07:40:07;;;;;;;;;;;;;;;13.67;100.00;98448.28;5059764;28;19924;-64
2022/10/30 07:42:33;;;;;;;;;;;;;;;13.65;100.00;98453.91;5057186;28;19956;-64
2022/10/30 07:44:59;;;;;;;;;;;;;;;13.65;100.00;98448.53;5056446;28;19925;-64
2022/10/30 07:47:27;;;;;;;;;;;;;;;13.57;100.00;98449.09;5060012;28;20360;-64
2022/10/30 07:49:53;;;;;;;;;;;;;;;13.58;100.00;98458.75;5063913;28;19984;-64
2022/10/30 07:52:20;;;;;;;;;;;;;;;13.51;100.00;98453.66;5059857;28;19935;-64
2022/10/30 07:54:46;;;;;;;;;;;;;;;13.52;100.00;98455.25;5061009;28;19977;-64
2022/10/30 07:57:12;;;;;;;;;;;;;;;13.50;100.00;98456.59;5059838;28;19927;-64
2022/10/30 07:59:39;;;;;;;;;;;;;;;13.56;100.00;98460.06;5061008;28;19972;-65
2022/10/30 08:02:05;;;;;;;;;;;;;;;13.56;100.00;98463.56;5058937;28;20015;-64
2022/10/30 08:04:33;;;;;;;;;;;;;;;13.59;100.00;98459.53;5057187;28;19939;-64
2022/10/30 08:06:59;;;;;;;;;;;;;;;13.62;100.00;98465.19;5055941;28;19925;-64
2022/10/30 08:09:25;;;;;;;;;;;;;;;13.70;100.00;98464.66;5057244;28;19984;-65
2022/10/30 08:11:52;;;;;;;;;;;;;;;13.70;100.00;98458.47;5059086;28;19996;-65
2022/10/30 08:14:19;;;;;;;;;;;;;;;13.70;100.00;98461.16;5058437;28;19925;-65
2022/10/30 08:16:46;;;;;;;;;;;;;;;13.74;100.00;98463.03;5055739;28;19925;-65
2022/10/30 08:19:12;;;;;;;;;;;;;;;13.72;100.00;98457.13;5055670;28;19992;-64
2022/10/30 08:21:40;;;;;;;;;;;;;;;13.75;100.00;98455.78;5058766;28;19984;-64
2022/10/30 08:24:06;;;;;;;;;;;;;;;13.74;100.00;98456.88;5055089;28;20019;-64
2022/10/30 08:26:33;;;;;;;;;;;;;;;13.77;100.00;98451.75;5056634;28;20012;-66
2022/10/30 08:28:59;;;;;;;;;;;;;;;13.88;100.00;98457.91;5055505;28;19932;-65
2022/10/30 08:31:25;;;;;;;;;;;;;;;13.89;100.00;98454.16;5056523;28;20423;-64
2022/10/30 08:33:52;;;;;;;;;;;;;;;13.92;100.00;98451.75;5058906;27;19924;-64
2022/10/30 08:36:18;;;;;;;;;;;;;;;13.95;100.00;98456.56;5058426;28;19932;-64
2022/10/30 08:38:45;;;;;;;;;;;;;;;14.09;100.00;98454.13;5055581;28;19925;-65
2022/10/30 08:41:12;;;;;;;;;;;;;;;14.07;100.00;98451.72;5055399;28;20001;-64
2022/10/30 08:43:38;;;;;;;;;;;;;;;14.06;100.00;98441.22;5058360;28;20666;-65
2022/10/30 08:46:05;;;;;;;;;;;;;;;14.07;100.00;98457.09;5058731;28;19929;-65
2022/10/30 08:48:31;;;;;;;;;;;;;;;14.17;100.00;98452.78;5056501;28;20023;-65
2022/10/30 08:50:58;;;;;;;;;;;;;;;14.20;100.00;98449.53;5055331;28;20011;-65
2022/10/30 08:53:24;;;;;;;;;;;;;;;14.25;100.00;98450.31;5052793;28;19936;-65
2022/10/30 08:55:52;;;;;;;;;;;;;;;14.19;100.00;98450.59;5058632;28;19976;-65
2022/10/30 08:58:19;;;;;;;;;;;;;;;14.19;100.00;98443.34;5058085;28;19960;-64
2022/10/30 09:00:45;;;;;;;;;;;;;;;14.28;100.00;98443.59;5054916;28;19992;-65
2022/10/30 09:03:11;;;;;;;;;;;;;;;14.32;100.00;98448.16;5054897;28;19971;-64
2022/10/30 09:05:38;;;;;;;;;;;;;;;14.40;100.00;98444.13;5057793;28;19984;-64
2022/10/30 09:08:04;;;;;;;;;;;;;;;14.45;100.00;98452.19;5058324;28;19992;-64
2022/10/30 09:10:30;;;;;;;;;;;;;;;14.49;100.00;98450.53;5055879;28;19931;-65
2022/10/30 09:12:59;;;;;;;;;;;;;;;14.53;100.00;98448.91;5054349;28;19932;-65
2022/10/30 09:15:25;;;;;;;;;;;;;;;14.58;100.00;98451.56;5058488;28;19932;-65
2022/10/30 09:17:56;;;;;;;;;;;;;;;14.62;100.00;98446.44;5061447;28;19925;-65
2022/10/30 09:20:22;;;;;;;;;;;;;;;14.62;100.00;98441.06;5060968;28;19928;-65
2022/10/30 09:22:48;;;;;;;;;;;;;;;14.63;100.00;98442.69;5053464;28;19981;-64
2022/10/30 09:25:15;;;;;;;;;;;;;;;14.69;100.00;98441.59;5058476;28;19988;-65
2022/10/30 09:27:41;;;;;;;;;;;;;;;14.67;100.00;98444.53;5058085;28;20259;-65
2022/10/30 09:30:10;;;;;;;;;;;;;;;14.73;100.00;98445.34;5058247;28;19921;-65
2022/10/30 09:32:36;;;;;;;;;;;;;;;14.78;100.00;98446.13;5061107;28;19928;-64
2022/10/30 09:35:03;;;;;;;;;;;;;;;14.87;100.00;98444.44;5061528;28;19988;-65
2022/10/30 09:37:33;;;;;;;;;;;;;;;14.93;100.00;98447.91;5059866;28;19964;-65
2022/10/30 09:39:59;;;;;;;;;;;;;;;14.82;100.00;98451.75;5058497;28;19972;-64
2022/10/30 09:42:40;;;;;;;;;;;;;;;15.05;100.00;98440.28;5059370;28;20436;-64
2022/10/30 09:45:17;;;;;;;;;;;;;;;15.08;100.00;98440.53;5063552;28;19984;-65
2022/10/30 09:47:50;;;;;;;;;;;;;;;15.09;100.00;98436.78;5050339;28;19984;-66
2022/10/30 09:50:24;;;;;;;;;;;;;;;15.22;100.00;98438.03;5058162;28;19925;-64
2022/10/30 09:52:56;;;;;;;;;;;;;;;15.27;100.00;98434.50;5054889;28;19925;-65
2022/10/30 09:55:33;;;;;;;;;;;;;;;15.22;100.00;98431.84;5058879;28;19925;-65
2022/10/30 09:58:04;;;;;;;;;;;;;;;15.32;100.00;98435.25;5061405;28;19992;-66
2022/10/30 10:00:36;;;;;;;;;;;;;;;15.42;100.00;98434.38;5059355;28;19971;-65
2022/10/30 10:03:10;;;;;;;;;;;;;;;15.45;100.00;98429.25;5057702;28;19921;-65
2022/10/30 10:05:41;;;;;;;;;;;;;;;15.53;100.00;98422.50;5060275;28;19929;-65
2022/10/30 10:08:10;;;;;;;;;;;;;;;15.53;100.00;98422.50;5061203;28;20560;-65
2022/10/30 10:10:39;;;;;;;;;;;;;;;15.68;100.00;98427.75;5058069;28;19956;-64
2022/10/30 10:13:07;;;;;;;;;;;;;;;15.75;100.00;98425.53;5057657;28;19925;-65
2022/10/30 10:15:39;;;;;;;;;;;;;;;15.77;100.00;98420.66;5060023;28;19941;-64
2022/10/30 10:18:11;;;;;;;;;;;;;;;15.82;100.00;98428.69;5060911;28;20012;-65
2022/10/30 10:20:41;;;;;;;;;;;;;;;15.82;100.00;98423.28;5057794;28;19986;-64
2022/10/30 10:23:12;;;;;;;;;;;;;;;15.84;100.00;98426.53;5053248;28;19925;-64
2022/10/30 10:25:42;;;;;;;;;;;;;;;15.95;100.00;98409.16;5059862;28;19925;-64
2022/10/30 10:28:17;;;;;;;;;;;;;;;16.08;100.00;98427.34;5060864;28;20019;-65
2022/10/30 10:30:48;;;;;;;;;;;;;;;16.23;100.00;98418.28;5049392;28;19925;-65
2022/10/30 10:33:23;;;;;;;;;;;;;;;16.29;100.00;98414.44;5057417;28;19925;-65
2022/10/30 10:35:53;;;;;;;;;;;;;;;16.29;100.00;98414.44;5050192;28;19925;-65
2022/10/30 10:38:26;;;;;;;;;;;;;;;16.28;100.00;98409.34;5057758;28;19925;-64
2022/10/30 10:40:58;;;;;;;;;;;;;;;16.35;100.00;98409.78;5060743;28;20008;-64
2022/10/30 10:43:31;;;;;;;;;;;;;;;16.46;100.00;98411.28;5059400;28;19925;-64
2022/10/30 10:46:07;;;;;;;;;;;;;;;16.55;100.00;98410.41;5057543;28;20020;-66
2022/10/30 10:48:41;;;;;;;;;;;;;;;16.58;100.00;98411.72;5059703;28;20020;-66
2022/10/30 10:51:10;;;;;;;;;;;;;;;16.59;100.00;98415.97;5060664;28;19996;-66
2022/10/30 10:53:40;;;;;;;;;;;;;;;16.50;100.00;98409.59;5049905;28;19935;-65
2022/10/30 10:56:07;;;;;;;;;;;;;;;16.40;100.00;98420.53;5060168;28;19933;-65
2022/10/30 10:58:36;;;;;;;;;;;;;;;16.54;100.00;98406.09;5057732;28;19936;-65
2022/10/30 11:01:05;;;;;;;;;;;;;;;16.72;100.00;98415.28;5056732;28;19925;-65
2022/10/30 11:03:38;;;;;;;;;;;;;;;16.54;100.00;98410.63;5058793;28;19960;-65
2022/10/30 11:06:11;;;;;;;;;;;;;;;16.36;100.00;98400.63;5060111;28;19925;-64
2022/10/30 11:08:37;;;;;;;;;;;;;;;16.60;100.00;98404.94;5057211;28;19928;-64
2022/10/30 11:11:05;;;;;;;;;;;;;;;16.78;100.00;98392.53;5056878;28;19989;-65
2022/10/30 11:13:34;;;;;;;;;;;;;;;16.86;100.00;98394.59;5058701;28;19986;-64
2022/10/30 11:16:04;;;;;;;;;;;;;;;16.70;100.00;98394.00;5059729;28;19972;-65
2022/10/30 11:18:32;;;;;;;;;;;;;;;16.92;100.00;98396.13;5057845;28;19988;-64
2022/10/30 11:21:00;;;;;;;;;;;;;;;16.89;100.00;98394.03;5056452;28;19927;-65
2022/10/30 11:23:30;;;;;;;;;;;;;;;17.10;100.00;98384.53;5053900;28;19925;-64
2022/10/30 11:25:57;;;;;;;;;;;;;;;17.24;100.00;98384.56;5059963;28;19925;-66
2022/10/30 11:28:33;;;;;;;;;;;;;;;17.20;100.00;98388.97;5058856;28;19924;-66
2022/10/30 11:31:16;;;;;;;;;;;;;;;17.09;100.00;98382.09;5055854;28;20559;-64
2022/10/30 11:33:46;;;;;;;;;;;;;;;17.08;100.00;98375.13;5048255;28;20452;-64
2022/10/30 11:36:14;;;;;;;;;;;;;;;17.22;100.00;98376.78;5055622;28;19936;-65
2022/10/30 11:38:40;;;;;;;;;;;;;;;17.29;100.00;98373.69;5059299;28;19935;-65
2022/10/30 11:41:09;;;;;;;;;;;;;;;17.43;100.00;98365.63;5059728;28;19992;-65
2022/10/30 11:43:36;;;;;;;;;;;;;;;17.38;100.00;98365.72;5057121;28;19927;-65
2022/10/30 11:46:08;;;;;;;;;;;;;;;17.57;100.00;98369.22;5056271;28;20172;-65
2022/10/30 11:48:36;;;;;;;;;;;;;;;17.71;100.00;98361.91;5058379;28;19972;-65
2022/10/30 11:51:04;;;;;;;;;;;;;;;17.60;100.00;98361.31;5059703;28;20007;-64
2022/10/30 11:53:34;;;;;;;;;;;;;;;17.64;100.00;98362.31;5049421;27;19929;-64
2022/10/30 11:56:01;;;;;;;;;;;;;;;17.69;100.00;98369.53;5059706;28;19935;-65
2022/10/30 11:58:29;;;;;;;;;;;;;;;17.79;100.00;98358.53;5057907;28;19984;-65
2022/10/30 12:01:00;;;;;;;;;;;;;;;17.79;100.00;98355.84;5056698;28;19985;-64
2022/10/30 12:03:28;;;;;;;;;;;;;;;17.89;100.00;98358.34;5058456;28;19925;-64
2022/10/30 12:06:06;;;;;;;;;;;;;;;18.05;100.00;98356.94;5064543;28;19976;-64
2022/10/30 12:08:34;;;;;;;;;;;;;;;17.93;100.00;98359.34;5063228;28;19924;-64
2022/10/30 12:11:01;;;;;;;;;;;;;;;17.49;100.00;98356.34;5060445;28;19921;-64
2022/10/30 12:13:30;;;;;;;;;;;;;;;17.52;100.00;98350.34;5059633;28;20000;-65
2022/10/30 12:16:04;;;;;;;;;;;;;;;17.50;100.00;98352.53;5059264;28;19992;-65
2022/10/30 12:18:32;;;;;;;;;;;;;;;17.68;100.00;98357.13;5057650;28;19925;-64
2022/10/30 12:20:58;;;;;;;;;;;;;;;17.78;100.00;98348.84;5055994;28;19936;-65
2022/10/30 12:23:26;;;;;;;;;;;;;;;18.02;100.00;98348.63;5054820;28;19926;-65
2022/10/30 12:25:54;;;;;;;;;;;;;;;18.11;100.00;98352.22;5059068;28;19925;-65
2022/10/30 12:28:22;;;;;;;;;;;;;;;18.31;100.00;98349.94;5058279;28;19991;-65
2022/10/30 12:30:51;;;;;;;;;;;;;;;18.35;100.00;98336.63;5055683;28;19935;-65
2022/10/30 12:33:20;;;;;;;;;;;;;;;18.38;100.00;98330.59;5055797;28;19964;-65
2022/10/30 12:35:51;;;;;;;;;;;;;;;18.19;100.00;98328.03;5058691;28;19988;-64
2022/10/30 12:38:22;;;;;;;;;;;;;;;18.42;100.00;98328.88;5058933;28;19992;-65